sensor_id;sensor_type;location;lat;lon;timestamp;temperature;humidity
41838;DHT22;27511;52.042;5.178;2023-03-30T00:01:11;16.10;99.90
41838;DHT22;27511;52.042;5.178;2023-03-30T00:03:42;16.10;99.90
41838;DHT22;27511;52.042;5.178;2023-03-30T00:06:08;16.20;99.90
41838;DHT22;27511;52.042;5.178;2023-03-30T00:08:35;16.10;99.90
41838;DHT22;27511;52.042;5.178;2023-03-30T00:11:05;16.20;99.90
41838;DHT22;27511;52.042;5.178;2023-03-30T00:13:31;16.20;99.90
41838;DHT22;27511;52.042;5.178;2023-03-30T00:15:57;16.10;99.90
41838;DHT22;27511;52.042;5.178;2023-03-30T00:18:23;16.20;99.90
41838;DHT22;27511;52.042;5.178;2023-03-30T00:20:49;16.20;99.90
41838;DHT22;27511;52.042;5.178;2023-03-30T00:23:16;16.10;99.90
41838;DHT22;27511;52.042;5.178;2023-03-30T00:25:41;16.00;99.90
41838;DHT22;27511;52.042;5.178;2023-03-30T00:28:07;16.00;99.90
41838;DHT22;27511;52.042;5.178;2023-03-30T00:30:33;16.10;99.90
41838;DHT22;27511;52.042;5.178;2023-03-30T00:32:58;16.00;99.90
41838;DHT22;27511;52.042;5.178;2023-03-30T00:35:24;16.00;99.90
41838;DHT22;27511;52.042;5.178;2023-03-30T00:37:51;16.00;99.90
41838;DHT22;27511;52.042;5.178;2023-03-30T00:40:19;16.00;99.90
41838;DHT22;27511;52.042;5.178;2023-03-30T00:42:45;16.10;99.90
41838;DHT22;27511;52.042;5.178;2023-03-30T00:47:42;16.00;99.90
41838;DHT22;27511;52.042;5.178;2023-03-30T00:50:10;16.20;99.90
41838;DHT22;27511;52.042;5.178;2023-03-30T00:52:37;16.10;99.90
41838;DHT22;27511;52.042;5.178;2023-03-30T00:55:03;16.20;99.90
41838;DHT22;27511;52.042;5.178;2023-03-30T00:57:30;16.20;99.90
41838;DHT22;27511;52.042;5.178;2023-03-30T00:59:56;16.20;99.90
41838;DHT22;27511;52.042;5.178;2023-03-30T01:02:21;16.20;99.90
41838;DHT22;27511;52.042;5.178;2023-03-30T01:04:48;16.20;99.90
41838;DHT22;27511;52.042;5.178;2023-03-30T01:07:15;16.30;99.90
41838;DHT22;27511;52.042;5.178;2023-03-30T01:09:41;16.20;99.90
41838;DHT22;27511;52.042;5.178;2023-03-30T01:12:08;16.40;99.90
41838;DHT22;27511;52.042;5.178;2023-03-30T01:14:33;16.40;99.90
41838;DHT22;27511;52.042;5.178;2023-03-30T01:22:02;16.30;99.90
41838;DHT22;27511;52.042;5.178;2023-03-30T01:27:12;16.40;99.90
41838;DHT22;27511;52.042;5.178;2023-03-30T01:29:52;16.40;99.90
41838;DHT22;27511;52.042;5.178;2023-03-30T01:40:19;16.30;99.90
41838;DHT22;27511;52.042;5.178;2023-03-30T01:42:51;16.30;99.90
41838;DHT22;27511;52.042;5.178;2023-03-30T01:50:22;16.30;99.90
41838;DHT22;27511;52.042;5.178;2023-03-30T01:55:18;16.20;99.90
41838;DHT22;27511;52.042;5.178;2023-03-30T01:57:46;16.10;99.90
41838;DHT22;27511;52.042;5.178;2023-03-30T02:00:15;16.10;99.90
41838;DHT22;27511;52.042;5.178;2023-03-30T02:02:43;16.30;99.90
41838;DHT22;27511;52.042;5.178;2023-03-30T02:05:09;16.30;99.90
41838;DHT22;27511;52.042;5.178;2023-03-30T02:07:37;16.20;99.90
41838;DHT22;27511;52.042;5.178;2023-03-30T02:10:05;16.10;99.90
41838;DHT22;27511;52.042;5.178;2023-03-30T02:12:32;15.90;99.90
41838;DHT22;27511;52.042;5.178;2023-03-30T02:14:59;16.00;99.90
41838;DHT22;27511;52.042;5.178;2023-03-30T02:17:27;16.10;99.90
41838;DHT22;27511;52.042;5.178;2023-03-30T02:19:52;16.20;99.90
41838;DHT22;27511;52.042;5.178;2023-03-30T02:22:20;16.20;99.90
41838;DHT22;27511;52.042;5.178;2023-03-30T02:24:47;16.10;99.90
41838;DHT22;27511;52.042;5.178;2023-03-30T02:27:14;16.20;99.90
41838;DHT22;27511;52.042;5.178;2023-03-30T02:29:40;16.20;99.90
41838;DHT22;27511;52.042;5.178;2023-03-30T02:32:06;16.20;99.90
41838;DHT22;27511;52.042;5.178;2023-03-30T02:37:16;16.20;99.90
41838;DHT22;27511;52.042;5.178;2023-03-30T02:45:32;16.10;99.90
41838;DHT22;27511;52.042;5.178;2023-03-30T02:53:03;16.00;99.90
41838;DHT22;27511;52.042;5.178;2023-03-30T02:58:01;16.10;99.90
41838;DHT22;27511;52.042;5.178;2023-03-30T03:00:35;16.10;99.90
41838;DHT22;27511;52.042;5.178;2023-03-30T03:03:08;16.20;99.90
41838;DHT22;27511;52.042;5.178;2023-03-30T03:05:36;16.00;99.90
41838;DHT22;27511;52.042;5.178;2023-03-30T03:08:02;15.90;99.90
41838;DHT22;27511;52.042;5.178;2023-03-30T03:10:27;16.00;99.90
41838;DHT22;27511;52.042;5.178;2023-03-30T03:12:53;16.20;99.90
41838;DHT22;27511;52.042;5.178;2023-03-30T03:15:18;16.20;99.90
41838;DHT22;27511;52.042;5.178;2023-03-30T03:17:44;16.20;99.90
41838;DHT22;27511;52.042;5.178;2023-03-30T03:20:11;16.20;99.90
41838;DHT22;27511;52.042;5.178;2023-03-30T03:22:36;16.20;99.90
41838;DHT22;27511;52.042;5.178;2023-03-30T03:25:02;16.10;99.90
41838;DHT22;27511;52.042;5.178;2023-03-30T03:27:29;16.10;99.90
41838;DHT22;27511;52.042;5.178;2023-03-30T03:29:55;16.10;99.90
41838;DHT22;27511;52.042;5.178;2023-03-30T03:32:20;16.00;99.90
41838;DHT22;27511;52.042;5.178;2023-03-30T03:34:46;16.10;99.90
41838;DHT22;27511;52.042;5.178;2023-03-30T03:37:11;16.20;99.90
41838;DHT22;27511;52.042;5.178;2023-03-30T03:39:37;16.10;99.90
41838;DHT22;27511;52.042;5.178;2023-03-30T03:42:03;15.90;99.90
41838;DHT22;27511;52.042;5.178;2023-03-30T03:44:29;16.10;99.90
41838;DHT22;27511;52.042;5.178;2023-03-30T03:46:54;15.90;99.90
41838;DHT22;27511;52.042;5.178;2023-03-30T03:49:20;16.00;99.90
41838;DHT22;27511;52.042;5.178;2023-03-30T03:51:46;16.10;99.90
41838;DHT22;27511;52.042;5.178;2023-03-30T03:54:11;16.00;99.90
41838;DHT22;27511;52.042;5.178;2023-03-30T03:56:37;16.00;99.90
41838;DHT22;27511;52.042;5.178;2023-03-30T03:59:02;15.90;99.90
41838;DHT22;27511;52.042;5.178;2023-03-30T04:01:29;15.70;99.90
41838;DHT22;27511;52.042;5.178;2023-03-30T04:03:54;15.80;99.90
41838;DHT22;27511;52.042;5.178;2023-03-30T04:06:20;15.80;99.90
41838;DHT22;27511;52.042;5.178;2023-03-30T04:08:45;15.80;99.90
41838;DHT22;27511;52.042;5.178;2023-03-30T04:11:11;15.90;99.90
41838;DHT22;27511;52.042;5.178;2023-03-30T04:13:37;15.80;99.90
41838;DHT22;27511;52.042;5.178;2023-03-30T04:16:03;15.80;99.90
41838;DHT22;27511;52.042;5.178;2023-03-30T04:18:29;15.80;99.90
41838;DHT22;27511;52.042;5.178;2023-03-30T04:21:02;15.90;99.90
41838;DHT22;27511;52.042;5.178;2023-03-30T04:23:29;15.80;99.90
41838;DHT22;27511;52.042;5.178;2023-03-30T04:25:59;15.80;99.90
41838;DHT22;27511;52.042;5.178;2023-03-30T04:28:29;15.80;99.90
41838;DHT22;27511;52.042;5.178;2023-03-30T04:30:56;15.80;99.90
41838;DHT22;27511;52.042;5.178;2023-03-30T04:33:23;15.80;99.90
41838;DHT22;27511;52.042;5.178;2023-03-30T04:35:48;15.80;99.90
41838;DHT22;27511;52.042;5.178;2023-03-30T04:38:14;15.90;99.90
41838;DHT22;27511;52.042;5.178;2023-03-30T04:40:50;15.80;99.90
41838;DHT22;27511;52.042;5.178;2023-03-30T04:43:16;15.90;99.90
41838;DHT22;27511;52.042;5.178;2023-03-30T04:45:48;15.70;99.90
41838;DHT22;27511;52.042;5.178;2023-03-30T04:48:13;15.60;99.90
41838;DHT22;27511;52.042;5.178;2023-03-30T04:50:39;15.70;99.90
41838;DHT22;27511;52.042;5.178;2023-03-30T04:53:05;15.60;99.90
41838;DHT22;27511;52.042;5.178;2023-03-30T04:55:30;15.60;99.90
41838;DHT22;27511;52.042;5.178;2023-03-30T04:57:56;15.50;99.90
41838;DHT22;27511;52.042;5.178;2023-03-30T05:00:21;15.50;99.90
41838;DHT22;27511;52.042;5.178;2023-03-30T05:02:47;15.50;99.90
41838;DHT22;27511;52.042;5.178;2023-03-30T05:05:13;15.60;99.90
41838;DHT22;27511;52.042;5.178;2023-03-30T05:07:38;15.50;99.90
41838;DHT22;27511;52.042;5.178;2023-03-30T05:10:03;15.40;99.90
41838;DHT22;27511;52.042;5.178;2023-03-30T05:12:29;15.30;99.90
41838;DHT22;27511;52.042;5.178;2023-03-30T05:14:54;15.30;99.90
41838;DHT22;27511;52.042;5.178;2023-03-30T05:17:20;15.10;99.90
41838;DHT22;27511;52.042;5.178;2023-03-30T05:19:45;15.10;99.90
41838;DHT22;27511;52.042;5.178;2023-03-30T05:22:11;15.10;99.90
41838;DHT22;27511;52.042;5.178;2023-03-30T05:24:36;15.20;99.90
41838;DHT22;27511;52.042;5.178;2023-03-30T05:27:02;15.40;99.90
41838;DHT22;27511;52.042;5.178;2023-03-30T05:29:29;15.30;99.90
41838;DHT22;27511;52.042;5.178;2023-03-30T05:31:54;15.20;99.90
41838;DHT22;27511;52.042;5.178;2023-03-30T05:34:20;15.30;99.90
41838;DHT22;27511;52.042;5.178;2023-03-30T05:36:45;15.30;99.90
41838;DHT22;27511;52.042;5.178;2023-03-30T05:39:12;15.10;99.90
41838;DHT22;27511;52.042;5.178;2023-03-30T05:41:37;15.00;99.90
41838;DHT22;27511;52.042;5.178;2023-03-30T05:44:03;14.80;99.90
41838;DHT22;27511;52.042;5.178;2023-03-30T05:46:29;14.90;99.90
41838;DHT22;27511;52.042;5.178;2023-03-30T05:48:55;15.00;99.90
41838;DHT22;27511;52.042;5.178;2023-03-30T05:51:20;14.90;99.90
41838;DHT22;27511;52.042;5.178;2023-03-30T05:53:46;14.80;99.90
41838;DHT22;27511;52.042;5.178;2023-03-30T05:56:11;14.60;99.90
41838;DHT22;27511;52.042;5.178;2023-03-30T05:58:37;14.60;99.90
41838;DHT22;27511;52.042;5.178;2023-03-30T06:01:02;14.70;99.90
41838;DHT22;27511;52.042;5.178;2023-03-30T06:03:30;14.60;99.90
41838;DHT22;27511;52.042;5.178;2023-03-30T06:05:56;14.70;99.90
41838;DHT22;27511;52.042;5.178;2023-03-30T06:08:21;14.80;99.90
41838;DHT22;27511;52.042;5.178;2023-03-30T06:10:51;14.80;99.90
41838;DHT22;27511;52.042;5.178;2023-03-30T06:13:16;14.90;99.90
41838;DHT22;27511;52.042;5.178;2023-03-30T06:15:43;14.90;99.90
41838;DHT22;27511;52.042;5.178;2023-03-30T06:18:09;14.80;99.90
41838;DHT22;27511;52.042;5.178;2023-03-30T06:20:34;14.90;99.90
41838;DHT22;27511;52.042;5.178;2023-03-30T06:23:00;14.90;99.90
41838;DHT22;27511;52.042;5.178;2023-03-30T06:25:25;15.00;99.90
41838;DHT22;27511;52.042;5.178;2023-03-30T06:27:51;15.00;99.90
41838;DHT22;27511;52.042;5.178;2023-03-30T06:30:16;14.80;99.90
41838;DHT22;27511;52.042;5.178;2023-03-30T06:32:42;14.60;99.90
41838;DHT22;27511;52.042;5.178;2023-03-30T06:35:07;14.50;99.90
41838;DHT22;27511;52.042;5.178;2023-03-30T06:37:33;14.40;99.90
41838;DHT22;27511;52.042;5.178;2023-03-30T06:40:01;14.40;99.90
41838;DHT22;27511;52.042;5.178;2023-03-30T06:42:31;14.40;99.90
41838;DHT22;27511;52.042;5.178;2023-03-30T06:44:57;14.50;99.90
41838;DHT22;27511;52.042;5.178;2023-03-30T06:47:23;14.50;99.90
41838;DHT22;27511;52.042;5.178;2023-03-30T06:49:48;14.60;99.90
41838;DHT22;27511;52.042;5.178;2023-03-30T06:52:14;14.70;99.90
41838;DHT22;27511;52.042;5.178;2023-03-30T06:54:39;14.70;99.90
41838;DHT22;27511;52.042;5.178;2023-03-30T06:57:05;14.70;99.90
41838;DHT22;27511;52.042;5.178;2023-03-30T06:59:30;14.70;99.90
41838;DHT22;27511;52.042;5.178;2023-03-30T07:01:57;14.60;99.90
41838;DHT22;27511;52.042;5.178;2023-03-30T07:04:23;14.90;99.90
41838;DHT22;27511;52.042;5.178;2023-03-30T07:06:48;14.80;99.90
41838;DHT22;27511;52.042;5.178;2023-03-30T07:09:14;14.80;99.90
41838;DHT22;27511;52.042;5.178;2023-03-30T07:11:39;14.80;99.90
41838;DHT22;27511;52.042;5.178;2023-03-30T07:14:05;14.80;99.90
41838;DHT22;27511;52.042;5.178;2023-03-30T07:16:31;15.00;99.90
41838;DHT22;27511;52.042;5.178;2023-03-30T07:18:57;15.10;99.90
41838;DHT22;27511;52.042;5.178;2023-03-30T07:21:22;15.20;99.90
41838;DHT22;27511;52.042;5.178;2023-03-30T07:23:48;14.80;99.90
41838;DHT22;27511;52.042;5.178;2023-03-30T07:26:15;14.80;99.90
41838;DHT22;27511;52.042;5.178;2023-03-30T07:28:41;14.70;99.90
41838;DHT22;27511;52.042;5.178;2023-03-30T07:31:07;14.80;99.90
41838;DHT22;27511;52.042;5.178;2023-03-30T07:33:33;14.80;99.90
41838;DHT22;27511;52.042;5.178;2023-03-30T07:35:58;15.00;99.90
41838;DHT22;27511;52.042;5.178;2023-03-30T07:38:24;15.00;99.90
41838;DHT22;27511;52.042;5.178;2023-03-30T07:40:49;14.90;99.90
41838;DHT22;27511;52.042;5.178;2023-03-30T07:43:15;14.80;99.90
41838;DHT22;27511;52.042;5.178;2023-03-30T07:45:41;14.80;99.90
41838;DHT22;27511;52.042;5.178;2023-03-30T07:48:06;14.90;99.90
41838;DHT22;27511;52.042;5.178;2023-03-30T07:50:32;15.00;99.90
41838;DHT22;27511;52.042;5.178;2023-03-30T07:52:58;15.10;99.90
41838;DHT22;27511;52.042;5.178;2023-03-30T07:55:23;15.10;99.90
41838;DHT22;27511;52.042;5.178;2023-03-30T07:57:49;15.20;99.90
41838;DHT22;27511;52.042;5.178;2023-03-30T08:00:14;15.10;99.90
41838;DHT22;27511;52.042;5.178;2023-03-30T08:02:40;15.10;99.90
41838;DHT22;27511;52.042;5.178;2023-03-30T08:05:06;15.10;99.90
41838;DHT22;27511;52.042;5.178;2023-03-30T08:07:32;15.10;99.90
41838;DHT22;27511;52.042;5.178;2023-03-30T08:09:59;15.00;99.90
41838;DHT22;27511;52.042;5.178;2023-03-30T08:12:25;15.00;99.90
41838;DHT22;27511;52.042;5.178;2023-03-30T08:14:51;15.00;99.90
41838;DHT22;27511;52.042;5.178;2023-03-30T08:17:16;15.10;99.90
41838;DHT22;27511;52.042;5.178;2023-03-30T08:19:43;15.10;99.90
41838;DHT22;27511;52.042;5.178;2023-03-30T08:22:09;15.10;99.90
41838;DHT22;27511;52.042;5.178;2023-03-30T08:24:34;15.00;99.90
41838;DHT22;27511;52.042;5.178;2023-03-30T08:27:00;15.00;99.90
41838;DHT22;27511;52.042;5.178;2023-03-30T08:29:25;15.00;99.90
41838;DHT22;27511;52.042;5.178;2023-03-30T08:31:51;15.00;99.90
41838;DHT22;27511;52.042;5.178;2023-03-30T08:34:16;15.00;99.90
41838;DHT22;27511;52.042;5.178;2023-03-30T08:36:42;14.90;99.90
41838;DHT22;27511;52.042;5.178;2023-03-30T08:39:07;14.90;99.90
41838;DHT22;27511;52.042;5.178;2023-03-30T08:46:48;15.00;99.90
41838;DHT22;27511;52.042;5.178;2023-03-30T08:49:15;14.90;99.90
41838;DHT22;27511;52.042;5.178;2023-03-30T08:51:43;15.00;99.90
41838;DHT22;27511;52.042;5.178;2023-03-30T08:54:11;14.90;99.90
41838;DHT22;27511;52.042;5.178;2023-03-30T08:56:39;14.80;99.90
41838;DHT22;27511;52.042;5.178;2023-03-30T09:01:46;14.80;99.90
41838;DHT22;27511;52.042;5.178;2023-03-30T09:06:52;14.70;99.90
41838;DHT22;27511;52.042;5.178;2023-03-30T09:09:20;14.60;99.90
41838;DHT22;27511;52.042;5.178;2023-03-30T09:11:51;14.80;99.90
41838;DHT22;27511;52.042;5.178;2023-03-30T09:14:22;15.00;99.90
41838;DHT22;27511;52.042;5.178;2023-03-30T09:16:51;15.00;99.90
41838;DHT22;27511;52.042;5.178;2023-03-30T09:19:30;15.00;99.90
41838;DHT22;27511;52.042;5.178;2023-03-30T09:21:57;15.20;99.90
41838;DHT22;27511;52.042;5.178;2023-03-30T09:24:25;15.30;99.90
41838;DHT22;27511;52.042;5.178;2023-03-30T09:26:57;15.30;99.90
41838;DHT22;27511;52.042;5.178;2023-03-30T09:29:25;15.50;99.90
41838;DHT22;27511;52.042;5.178;2023-03-30T09:34:28;15.60;99.90
41838;DHT22;27511;52.042;5.178;2023-03-30T09:36:57;15.60;99.90
41838;DHT22;27511;52.042;5.178;2023-03-30T09:39:26;15.60;99.90
41838;DHT22;27511;52.042;5.178;2023-03-30T09:46:58;15.50;99.90
41838;DHT22;27511;52.042;5.178;2023-03-30T09:49:25;15.40;99.90
41838;DHT22;27511;52.042;5.178;2023-03-30T09:51:56;15.50;99.90
41838;DHT22;27511;52.042;5.178;2023-03-30T09:54:25;15.40;99.90
41838;DHT22;27511;52.042;5.178;2023-03-30T09:56:58;15.40;99.90
41838;DHT22;27511;52.042;5.178;2023-03-30T09:59:33;15.50;99.90
41838;DHT22;27511;52.042;5.178;2023-03-30T10:07:25;15.90;99.90
41838;DHT22;27511;52.042;5.178;2023-03-30T10:09:51;15.80;99.90
41838;DHT22;27511;52.042;5.178;2023-03-30T10:12:17;15.80;99.90
41838;DHT22;27511;52.042;5.178;2023-03-30T10:14:42;15.80;99.90
41838;DHT22;27511;52.042;5.178;2023-03-30T10:17:16;15.70;99.90
41838;DHT22;27511;52.042;5.178;2023-03-30T10:19:42;15.80;99.90
41838;DHT22;27511;52.042;5.178;2023-03-30T10:22:15;15.90;99.90
41838;DHT22;27511;52.042;5.178;2023-03-30T10:24:50;15.90;99.90
41838;DHT22;27511;52.042;5.178;2023-03-30T10:27:17;16.10;99.90
41838;DHT22;27511;52.042;5.178;2023-03-30T10:29:44;16.20;99.90
41838;DHT22;27511;52.042;5.178;2023-03-30T10:32:13;16.20;99.90
41838;DHT22;27511;52.042;5.178;2023-03-30T10:34:40;16.00;99.90
41838;DHT22;27511;52.042;5.178;2023-03-30T10:37:10;15.90;99.90
41838;DHT22;27511;52.042;5.178;2023-03-30T10:39:41;15.90;99.90
41838;DHT22;27511;52.042;5.178;2023-03-30T10:42:08;15.80;99.90
41838;DHT22;27511;52.042;5.178;2023-03-30T10:44:40;16.10;99.90
41838;DHT22;27511;52.042;5.178;2023-03-30T10:47:17;16.00;99.90
41838;DHT22;27511;52.042;5.178;2023-03-30T10:52:22;15.80;99.90
41838;DHT22;27511;52.042;5.178;2023-03-30T10:54:55;16.10;99.90
41838;DHT22;27511;52.042;5.178;2023-03-30T10:57:35;16.30;99.90
41838;DHT22;27511;52.042;5.178;2023-03-30T11:02:43;16.40;99.90
41838;DHT22;27511;52.042;5.178;2023-03-30T11:05:12;16.20;99.90
41838;DHT22;27511;52.042;5.178;2023-03-30T11:07:43;16.40;99.90
41838;DHT22;27511;52.042;5.178;2023-03-30T11:12:43;16.70;99.90
41838;DHT22;27511;52.042;5.178;2023-03-30T11:17:51;17.00;99.90
41838;DHT22;27511;52.042;5.178;2023-03-30T11:20:29;17.00;99.90
41838;DHT22;27511;52.042;5.178;2023-03-30T11:22:58;16.90;99.90
41838;DHT22;27511;52.042;5.178;2023-03-30T11:25:28;16.60;99.90
41838;DHT22;27511;52.042;5.178;2023-03-30T11:27:54;16.30;99.90
41838;DHT22;27511;52.042;5.178;2023-03-30T11:30:25;16.20;99.90
41838;DHT22;27511;52.042;5.178;2023-03-30T11:32:55;16.10;99.90
41838;DHT22;27511;52.042;5.178;2023-03-30T11:35:30;16.00;99.90
41838;DHT22;27511;52.042;5.178;2023-03-30T11:38:09;16.30;99.90
41838;DHT22;27511;52.042;5.178;2023-03-30T11:40:40;16.70;99.90
41838;DHT22;27511;52.042;5.178;2023-03-30T11:43:08;16.80;99.90
41838;DHT22;27511;52.042;5.178;2023-03-30T11:53:38;16.20;99.90
41838;DHT22;27511;52.042;5.178;2023-03-30T11:56:08;16.00;99.90
41838;DHT22;27511;52.042;5.178;2023-03-30T11:58:35;16.00;99.90
41838;DHT22;27511;52.042;5.178;2023-03-30T12:11:11;16.20;99.90
41838;DHT22;27511;52.042;5.178;2023-03-30T12:13:39;16.40;99.90
41838;DHT22;27511;52.042;5.178;2023-03-30T12:16:07;16.50;99.90
41838;DHT22;27511;52.042;5.178;2023-03-30T12:18:41;16.50;99.90
41838;DHT22;27511;52.042;5.178;2023-03-30T12:23:59;16.40;99.90
41838;DHT22;27511;52.042;5.178;2023-03-30T12:28:49;16.60;99.90
41838;DHT22;27511;52.042;5.178;2023-03-30T12:31:20;16.50;99.90
41838;DHT22;27511;52.042;5.178;2023-03-30T12:33:47;16.40;99.90
41838;DHT22;27511;52.042;5.178;2023-03-30T12:38:51;16.60;99.90
41838;DHT22;27511;52.042;5.178;2023-03-30T12:41:17;16.60;99.90
41838;DHT22;27511;52.042;5.178;2023-03-30T12:46:20;16.60;99.90
41838;DHT22;27511;52.042;5.178;2023-03-30T13:02:04;15.70;99.90
41838;DHT22;27511;52.042;5.178;2023-03-30T13:04:35;15.50;99.90
41838;DHT22;27511;52.042;5.178;2023-03-30T13:07:07;15.40;99.90
41838;DHT22;27511;52.042;5.178;2023-03-30T13:17:42;15.60;99.90
41838;DHT22;27511;52.042;5.178;2023-03-30T13:20:13;15.70;99.90
41838;DHT22;27511;52.042;5.178;2023-03-30T13:22:48;15.60;99.90
41838;DHT22;27511;52.042;5.178;2023-03-30T13:27:44;16.30;99.90
41838;DHT22;27511;52.042;5.178;2023-03-30T13:30:11;17.00;99.90
41838;DHT22;27511;52.042;5.178;2023-03-30T13:35:17;17.20;99.90
41838;DHT22;27511;52.042;5.178;2023-03-30T13:40:25;16.90;99.90
41838;DHT22;27511;52.042;5.178;2023-03-30T13:45:32;16.40;99.90
41838;DHT22;27511;52.042;5.178;2023-03-30T13:48:03;16.60;99.90
41838;DHT22;27511;52.042;5.178;2023-03-30T13:50:31;17.00;99.90
41838;DHT22;27511;52.042;5.178;2023-03-30T13:53:03;17.20;99.90
41838;DHT22;27511;52.042;5.178;2023-03-30T13:55:40;17.50;99.90
41838;DHT22;27511;52.042;5.178;2023-03-30T13:58:09;18.10;99.90
41838;DHT22;27511;52.042;5.178;2023-03-30T14:05:52;18.10;99.90
41838;DHT22;27511;52.042;5.178;2023-03-30T14:08:18;18.10;99.90
41838;DHT22;27511;52.042;5.178;2023-03-30T14:10:50;18.10;99.90
41838;DHT22;27511;52.042;5.178;2023-03-30T14:13:16;18.00;99.90
41838;DHT22;27511;52.042;5.178;2023-03-30T14:15:42;17.70;99.90
41838;DHT22;27511;52.042;5.178;2023-03-30T14:18:10;17.60;99.90
41838;DHT22;27511;52.042;5.178;2023-03-30T14:23:27;17.80;99.90
41838;DHT22;27511;52.042;5.178;2023-03-30T14:25:57;17.90;99.90
41838;DHT22;27511;52.042;5.178;2023-03-30T14:28:25;17.70;99.90
41838;DHT22;27511;52.042;5.178;2023-03-30T14:30:55;18.00;99.90
41838;DHT22;27511;52.042;5.178;2023-03-30T14:33:21;18.20;99.90
41838;DHT22;27511;52.042;5.178;2023-03-30T14:35:47;18.30;99.90
41838;DHT22;27511;52.042;5.178;2023-03-30T14:40:46;18.40;99.90
41838;DHT22;27511;52.042;5.178;2023-03-30T14:43:17;18.70;99.90
41838;DHT22;27511;52.042;5.178;2023-03-30T14:45:43;19.20;99.90
41838;DHT22;27511;52.042;5.178;2023-03-30T14:48:16;19.40;99.90
41838;DHT22;27511;52.042;5.178;2023-03-30T14:50:43;19.20;99.90
41838;DHT22;27511;52.042;5.178;2023-03-30T14:53:09;18.60;99.90
41838;DHT22;27511;52.042;5.178;2023-03-30T14:55:34;18.30;99.90
41838;DHT22;27511;52.042;5.178;2023-03-30T14:58:00;18.20;99.90
41838;DHT22;27511;52.042;5.178;2023-03-30T15:00:26;18.10;99.90
41838;DHT22;27511;52.042;5.178;2023-03-30T15:02:56;17.90;99.90
41838;DHT22;27511;52.042;5.178;2023-03-30T15:05:24;17.90;99.90
41838;DHT22;27511;52.042;5.178;2023-03-30T15:07:51;17.80;99.90
41838;DHT22;27511;52.042;5.178;2023-03-30T15:10:35;17.30;99.90
41838;DHT22;27511;52.042;5.178;2023-03-30T15:13:02;17.10;99.90
41838;DHT22;27511;52.042;5.178;2023-03-30T15:15:31;17.40;99.90
41838;DHT22;27511;52.042;5.178;2023-03-30T15:17:57;17.60;99.90
41838;DHT22;27511;52.042;5.178;2023-03-30T15:20:24;17.40;99.90
41838;DHT22;27511;52.042;5.178;2023-03-30T15:22:51;17.10;99.90
41838;DHT22;27511;52.042;5.178;2023-03-30T15:25:18;16.80;99.90
41838;DHT22;27511;52.042;5.178;2023-03-30T15:27:51;17.00;99.90
41838;DHT22;27511;52.042;5.178;2023-03-30T15:30:25;17.40;99.90
41838;DHT22;27511;52.042;5.178;2023-03-30T15:32:55;18.40;99.90
41838;DHT22;27511;52.042;5.178;2023-03-30T15:35:28;19.50;99.90
41838;DHT22;27511;52.042;5.178;2023-03-30T15:37:55;19.40;99.90
41838;DHT22;27511;52.042;5.178;2023-03-30T15:40:25;18.80;99.90
41838;DHT22;27511;52.042;5.178;2023-03-30T15:43:09;18.70;99.90
41838;DHT22;27511;52.042;5.178;2023-03-30T15:45:35;18.90;99.90
41838;DHT22;27511;52.042;5.178;2023-03-30T15:48:01;18.90;99.90
41838;DHT22;27511;52.042;5.178;2023-03-30T15:50:26;18.80;99.90
41838;DHT22;27511;52.042;5.178;2023-03-30T15:52:57;18.70;99.90
41838;DHT22;27511;52.042;5.178;2023-03-30T15:55:30;18.40;99.90
41838;DHT22;27511;52.042;5.178;2023-03-30T15:57:56;18.50;99.90
41838;DHT22;27511;52.042;5.178;2023-03-30T16:00:23;18.80;99.90
41838;DHT22;27511;52.042;5.178;2023-03-30T16:02:50;18.90;99.90
41838;DHT22;27511;52.042;5.178;2023-03-30T16:05:23;18.90;99.90
41838;DHT22;27511;52.042;5.178;2023-03-30T16:07:49;18.50;99.90
41838;DHT22;27511;52.042;5.178;2023-03-30T16:10:16;18.40;99.90
41838;DHT22;27511;52.042;5.178;2023-03-30T16:12:43;18.10;99.90
41838;DHT22;27511;52.042;5.178;2023-03-30T16:15:13;18.10;99.90
41838;DHT22;27511;52.042;5.178;2023-03-30T16:17:39;18.30;99.90
41838;DHT22;27511;52.042;5.178;2023-03-30T16:20:12;18.40;99.90
41838;DHT22;27511;52.042;5.178;2023-03-30T16:22:38;18.30;99.90
41838;DHT22;27511;52.042;5.178;2023-03-30T16:25:03;18.10;99.90
41838;DHT22;27511;52.042;5.178;2023-03-30T16:27:29;18.10;99.90
41838;DHT22;27511;52.042;5.178;2023-03-30T16:29:55;18.10;99.90
41838;DHT22;27511;52.042;5.178;2023-03-30T16:32:21;18.10;99.90
41838;DHT22;27511;52.042;5.178;2023-03-30T16:34:46;18.00;99.90
41838;DHT22;27511;52.042;5.178;2023-03-30T16:37:12;18.00;99.90
41838;DHT22;27511;52.042;5.178;2023-03-30T16:39:38;18.00;99.90
41838;DHT22;27511;52.042;5.178;2023-03-30T16:42:04;17.80;99.90
41838;DHT22;27511;52.042;5.178;2023-03-30T16:44:30;17.30;99.90
41838;DHT22;27511;52.042;5.178;2023-03-30T16:46:55;17.20;99.90
41838;DHT22;27511;52.042;5.178;2023-03-30T16:49:22;17.10;99.90
41838;DHT22;27511;52.042;5.178;2023-03-30T16:51:48;17.20;99.90
41838;DHT22;27511;52.042;5.178;2023-03-30T16:54:15;17.00;99.90
41838;DHT22;27511;52.042;5.178;2023-03-30T16:56:41;17.00;99.90
41838;DHT22;27511;52.042;5.178;2023-03-30T16:59:20;17.00;99.90
41838;DHT22;27511;52.042;5.178;2023-03-30T17:01:46;17.20;99.90
41838;DHT22;27511;52.042;5.178;2023-03-30T17:04:11;17.30;99.90
41838;DHT22;27511;52.042;5.178;2023-03-30T17:06:36;17.10;99.90
41838;DHT22;27511;52.042;5.178;2023-03-30T17:09:02;17.20;99.90
41838;DHT22;27511;52.042;5.178;2023-03-30T17:11:28;17.00;99.90
41838;DHT22;27511;52.042;5.178;2023-03-30T17:13:53;16.90;99.90
41838;DHT22;27511;52.042;5.178;2023-03-30T17:16:18;16.80;99.90
41838;DHT22;27511;52.042;5.178;2023-03-30T17:18:46;16.70;99.90
41838;DHT22;27511;52.042;5.178;2023-03-30T17:21:11;16.50;99.90
41838;DHT22;27511;52.042;5.178;2023-03-30T17:23:41;16.30;99.90
41838;DHT22;27511;52.042;5.178;2023-03-30T17:26:07;16.70;99.90
41838;DHT22;27511;52.042;5.178;2023-03-30T17:28:33;16.70;99.90
41838;DHT22;27511;52.042;5.178;2023-03-30T17:31:00;16.70;99.90
41838;DHT22;27511;52.042;5.178;2023-03-30T17:33:26;16.70;99.90
41838;DHT22;27511;52.042;5.178;2023-03-30T17:35:53;16.40;99.90
41838;DHT22;27511;52.042;5.178;2023-03-30T17:38:19;16.40;99.90
41838;DHT22;27511;52.042;5.178;2023-03-30T17:40:46;16.30;99.90
41838;DHT22;27511;52.042;5.178;2023-03-30T17:43:12;16.30;99.90
41838;DHT22;27511;52.042;5.178;2023-03-30T17:45:38;16.10;99.90
41838;DHT22;27511;52.042;5.178;2023-03-30T17:48:05;16.00;99.90
41838;DHT22;27511;52.042;5.178;2023-03-30T17:50:32;16.00;99.90
41838;DHT22;27511;52.042;5.178;2023-03-30T17:52:58;15.90;99.90
41838;DHT22;27511;52.042;5.178;2023-03-30T17:55:24;15.90;99.90
41838;DHT22;27511;52.042;5.178;2023-03-30T17:57:50;15.80;99.90